sensor_id;sensor_type;location;lat;lon;timestamp;P1;durP1;ratioP1;P2;durP2;ratioP2
66587;SDS011;53446;50.076;8.198;2023-05-10T00:01:15;62.88;;;56.83;;
66587;SDS011;53446;50.076;8.198;2023-05-10T00:03:15;64.50;;;58.43;;
66587;SDS011;53446;50.076;8.198;2023-05-10T00:05:15;67.30;;;61.03;;
66587;SDS011;53446;50.076;8.198;2023-05-10T00:07:16;66.03;;;59.83;;
66587;SDS011;53446;50.076;8.198;2023-05-10T00:09:17;65.57;;;59.35;;
66587;SDS011;53446;50.076;8.198;2023-05-10T00:11:17;65.53;;;58.90;;
66587;SDS011;53446;50.076;8.198;2023-05-10T00:13:17;65.37;;;59.33;;
66587;SDS011;53446;50.076;8.198;2023-05-10T00:15:18;64.47;;;58.73;;
66587;SDS011;53446;50.076;8.198;2023-05-10T00:17:18;63.23;;;57.43;;
66587;SDS011;53446;50.076;8.198;2023-05-10T00:19:18;68.77;;;62.20;;
66587;SDS011;53446;50.076;8.198;2023-05-10T00:21:19;67.67;;;61.30;;
66587;SDS011;53446;50.076;8.198;2023-05-10T00:23:19;65.00;;;59.00;;
66587;SDS011;53446;50.076;8.198;2023-05-10T00:25:19;64.82;;;58.80;;
66587;SDS011;53446;50.076;8.198;2023-05-10T00:27:21;66.15;;;60.08;;
66587;SDS011;53446;50.076;8.198;2023-05-10T00:29:21;63.83;;;57.37;;
66587;SDS011;53446;50.076;8.198;2023-05-10T00:31:22;65.33;;;58.37;;
66587;SDS011;53446;50.076;8.198;2023-05-10T00:33:22;64.97;;;58.00;;
66587;SDS011;53446;50.076;8.198;2023-05-10T00:35:22;68.03;;;60.90;;
66587;SDS011;53446;50.076;8.198;2023-05-10T00:37:23;67.67;;;60.50;;
66587;SDS011;53446;50.076;8.198;2023-05-10T00:39:23;68.57;;;61.00;;
66587;SDS011;53446;50.076;8.198;2023-05-10T00:41:23;71.28;;;63.22;;
66587;SDS011;53446;50.076;8.198;2023-05-10T00:43:24;69.23;;;61.03;;
66587;SDS011;53446;50.076;8.198;2023-05-10T00:45:24;75.17;;;63.70;;
66587;SDS011;53446;50.076;8.198;2023-05-10T00:47:24;78.33;;;67.73;;
66587;SDS011;53446;50.076;8.198;2023-05-10T00:49:25;76.67;;;65.17;;
66587;SDS011;53446;50.076;8.198;2023-05-10T00:51:25;79.75;;;66.57;;
66587;SDS011;53446;50.076;8.198;2023-05-10T00:53:26;81.30;;;68.47;;
66587;SDS011;53446;50.076;8.198;2023-05-10T00:55:26;83.57;;;70.97;;
66587;SDS011;53446;50.076;8.198;2023-05-10T00:57:27;82.07;;;69.83;;
66587;SDS011;53446;50.076;8.198;2023-05-10T00:59:28;82.40;;;72.07;;
66587;SDS011;53446;50.076;8.198;2023-05-10T01:01:28;83.93;;;73.35;;
66587;SDS011;53446;50.076;8.198;2023-05-10T01:03:28;78.55;;;70.13;;
66587;SDS011;53446;50.076;8.198;2023-05-10T01:05:29;83.17;;;69.30;;
66587;SDS011;53446;50.076;8.198;2023-05-10T01:07:30;74.03;;;66.20;;
66587;SDS011;53446;50.076;8.198;2023-05-10T01:09:30;73.72;;;65.88;;
66587;SDS011;53446;50.076;8.198;2023-05-10T01:11:30;72.07;;;64.50;;
66587;SDS011;53446;50.076;8.198;2023-05-10T01:13:33;72.73;;;64.90;;
66587;SDS011;53446;50.076;8.198;2023-05-10T01:15:36;72.35;;;64.60;;
66587;SDS011;53446;50.076;8.198;2023-05-10T01:17:37;70.70;;;63.10;;
66587;SDS011;53446;50.076;8.198;2023-05-10T01:19:38;70.20;;;63.05;;
66587;SDS011;53446;50.076;8.198;2023-05-10T01:21:41;69.90;;;62.40;;
66587;SDS011;53446;50.076;8.198;2023-05-10T01:23:51;70.13;;;62.50;;
66587;SDS011;53446;50.076;8.198;2023-05-10T01:34:19;82.18;;;72.38;;
66587;SDS011;53446;50.076;8.198;2023-05-10T01:40:54;73.70;;;65.82;;
66587;SDS011;53446;50.076;8.198;2023-05-10T01:43:00;80.75;;;69.28;;
66587;SDS011;53446;50.076;8.198;2023-05-10T01:45:07;78.43;;;70.03;;
66587;SDS011;53446;50.076;8.198;2023-05-10T01:47:20;72.13;;;64.47;;
66587;SDS011;53446;50.076;8.198;2023-05-10T01:49:30;72.22;;;63.60;;
66587;SDS011;53446;50.076;8.198;2023-05-10T01:51:36;68.47;;;61.22;;
66587;SDS011;53446;50.076;8.198;2023-05-10T01:53:54;69.72;;;62.67;;
66587;SDS011;53446;50.076;8.198;2023-05-10T01:55:57;67.13;;;60.42;;
66587;SDS011;53446;50.076;8.198;2023-05-10T01:58:04;64.00;;;57.50;;
66587;SDS011;53446;50.076;8.198;2023-05-10T02:00:06;60.42;;;54.42;;
66587;SDS011;53446;50.076;8.198;2023-05-10T02:02:08;65.28;;;59.00;;
66587;SDS011;53446;50.076;8.198;2023-05-10T02:04:11;61.67;;;55.67;;
66587;SDS011;53446;50.076;8.198;2023-05-10T02:06:13;62.88;;;56.67;;
66587;SDS011;53446;50.076;8.198;2023-05-10T02:08:14;56.42;;;51.08;;
66587;SDS011;53446;50.076;8.198;2023-05-10T02:10:15;54.78;;;49.55;;
66587;SDS011;53446;50.076;8.198;2023-05-10T02:12:16;49.30;;;44.95;;
66587;SDS011;53446;50.076;8.198;2023-05-10T02:14:18;53.70;;;48.78;;
66587;SDS011;53446;50.076;8.198;2023-05-10T02:16:18;51.80;;;47.13;;
66587;SDS011;53446;50.076;8.198;2023-05-10T02:18:23;50.63;;;46.15;;
66587;SDS011;53446;50.076;8.198;2023-05-10T02:20:25;50.03;;;45.63;;
66587;SDS011;53446;50.076;8.198;2023-05-10T02:22:26;51.13;;;46.73;;
66587;SDS011;53446;50.076;8.198;2023-05-10T02:24:27;52.58;;;47.95;;
66587;SDS011;53446;50.076;8.198;2023-05-10T02:26:28;53.85;;;48.70;;
66587;SDS011;53446;50.076;8.198;2023-05-10T02:28:29;53.95;;;49.20;;
66587;SDS011;53446;50.076;8.198;2023-05-10T02:30:31;54.27;;;49.53;;
66587;SDS011;53446;50.076;8.198;2023-05-10T02:32:32;52.95;;;48.20;;
66587;SDS011;53446;50.076;8.198;2023-05-10T02:34:33;52.72;;;47.95;;
66587;SDS011;53446;50.076;8.198;2023-05-10T02:36:33;54.80;;;49.60;;
66587;SDS011;53446;50.076;8.198;2023-05-10T02:38:33;57.83;;;52.53;;
66587;SDS011;53446;50.076;8.198;2023-05-10T02:40:35;57.10;;;52.00;;
66587;SDS011;53446;50.076;8.198;2023-05-10T02:42:36;59.38;;;53.85;;
66587;SDS011;53446;50.076;8.198;2023-05-10T02:44:37;57.17;;;51.77;;
66587;SDS011;53446;50.076;8.198;2023-05-10T02:46:39;57.35;;;51.83;;
66587;SDS011;53446;50.076;8.198;2023-05-10T02:48:39;59.17;;;53.67;;
66587;SDS011;53446;50.076;8.198;2023-05-10T02:50:40;59.53;;;53.78;;
66587;SDS011;53446;50.076;8.198;2023-05-10T02:52:44;62.65;;;56.25;;
66587;SDS011;53446;50.076;8.198;2023-05-10T02:54:48;58.47;;;53.08;;
66587;SDS011;53446;50.076;8.198;2023-05-10T02:56:51;59.33;;;53.92;;
66587;SDS011;53446;50.076;8.198;2023-05-10T02:58:54;60.85;;;55.13;;
66587;SDS011;53446;50.076;8.198;2023-05-10T03:00:55;62.23;;;56.50;;
66587;SDS011;53446;50.076;8.198;2023-05-10T03:02:55;64.33;;;58.03;;
66587;SDS011;53446;50.076;8.198;2023-05-10T03:04:56;61.83;;;56.20;;
66587;SDS011;53446;50.076;8.198;2023-05-10T03:06:56;63.33;;;57.45;;
66587;SDS011;53446;50.076;8.198;2023-05-10T03:08:56;60.60;;;54.90;;
66587;SDS011;53446;50.076;8.198;2023-05-10T03:11:08;62.00;;;56.17;;
66587;SDS011;53446;50.076;8.198;2023-05-10T03:13:14;63.05;;;56.85;;
66587;SDS011;53446;50.076;8.198;2023-05-10T03:17:52;64.95;;;58.13;;
66587;SDS011;53446;50.076;8.198;2023-05-10T03:19:56;64.70;;;58.53;;
66587;SDS011;53446;50.076;8.198;2023-05-10T03:21:59;63.13;;;57.05;;
66587;SDS011;53446;50.076;8.198;2023-05-10T03:24:04;60.28;;;54.65;;
66587;SDS011;53446;50.076;8.198;2023-05-10T03:26:07;60.95;;;55.03;;
66587;SDS011;53446;50.076;8.198;2023-05-10T03:28:07;59.92;;;54.20;;
66587;SDS011;53446;50.076;8.198;2023-05-10T03:30:10;59.70;;;53.90;;
66587;SDS011;53446;50.076;8.198;2023-05-10T03:32:11;58.20;;;52.75;;
66587;SDS011;53446;50.076;8.198;2023-05-10T03:34:11;60.10;;;54.37;;
66587;SDS011;53446;50.076;8.198;2023-05-10T03:36:11;56.83;;;51.37;;
66587;SDS011;53446;50.076;8.198;2023-05-10T03:38:12;55.25;;;49.83;;
66587;SDS011;53446;50.076;8.198;2023-05-10T03:40:12;59.42;;;53.33;;
66587;SDS011;53446;50.076;8.198;2023-05-10T03:42:13;55.27;;;50.00;;
66587;SDS011;53446;50.076;8.198;2023-05-10T03:44:13;54.37;;;49.20;;
66587;SDS011;53446;50.076;8.198;2023-05-10T03:46:13;54.97;;;49.73;;
66587;SDS011;53446;50.076;8.198;2023-05-10T03:48:14;54.30;;;49.00;;
66587;SDS011;53446;50.076;8.198;2023-05-10T03:50:14;54.90;;;49.63;;
66587;SDS011;53446;50.076;8.198;2023-05-10T03:52:14;56.40;;;50.83;;
66587;SDS011;53446;50.076;8.198;2023-05-10T03:54:15;54.77;;;49.50;;
66587;SDS011;53446;50.076;8.198;2023-05-10T03:56:15;56.03;;;50.70;;
66587;SDS011;53446;50.076;8.198;2023-05-10T03:58:15;56.83;;;51.10;;
66587;SDS011;53446;50.076;8.198;2023-05-10T04:00:16;56.70;;;51.33;;
66587;SDS011;53446;50.076;8.198;2023-05-10T04:02:16;58.80;;;53.13;;
66587;SDS011;53446;50.076;8.198;2023-05-10T04:04:16;60.30;;;54.30;;
66587;SDS011;53446;50.076;8.198;2023-05-10T04:06:18;59.33;;;53.88;;
66587;SDS011;53446;50.076;8.198;2023-05-10T04:08:18;61.43;;;55.67;;
66587;SDS011;53446;50.076;8.198;2023-05-10T04:10:18;60.87;;;55.20;;
66587;SDS011;53446;50.076;8.198;2023-05-10T04:12:19;63.83;;;57.73;;
66587;SDS011;53446;50.076;8.198;2023-05-10T04:14:19;61.93;;;56.00;;
66587;SDS011;53446;50.076;8.198;2023-05-10T04:16:20;66.87;;;60.40;;
66587;SDS011;53446;50.076;8.198;2023-05-10T04:18:20;66.18;;;59.55;;
66587;SDS011;53446;50.076;8.198;2023-05-10T04:20:20;64.72;;;58.05;;
66587;SDS011;53446;50.076;8.198;2023-05-10T04:22:20;64.70;;;58.17;;
66587;SDS011;53446;50.076;8.198;2023-05-10T04:24:21;64.43;;;57.60;;
66587;SDS011;53446;50.076;8.198;2023-05-10T04:26:21;67.27;;;60.03;;
66587;SDS011;53446;50.076;8.198;2023-05-10T04:28:22;64.23;;;57.37;;
66587;SDS011;53446;50.076;8.198;2023-05-10T04:30:22;65.50;;;58.53;;
66587;SDS011;53446;50.076;8.198;2023-05-10T04:32:22;67.93;;;60.80;;
66587;SDS011;53446;50.076;8.198;2023-05-10T04:34:23;72.43;;;65.10;;
66587;SDS011;53446;50.076;8.198;2023-05-10T04:36:23;70.77;;;63.63;;
66587;SDS011;53446;50.076;8.198;2023-05-10T04:38:23;71.67;;;64.83;;
66587;SDS011;53446;50.076;8.198;2023-05-10T04:40:24;70.93;;;63.63;;
66587;SDS011;53446;50.076;8.198;2023-05-10T04:42:24;71.18;;;63.95;;
66587;SDS011;53446;50.076;8.198;2023-05-10T04:44:25;70.67;;;63.27;;
66587;SDS011;53446;50.076;8.198;2023-05-10T04:46:25;71.30;;;64.07;;
66587;SDS011;53446;50.076;8.198;2023-05-10T04:48:25;69.20;;;62.17;;
66587;SDS011;53446;50.076;8.198;2023-05-10T04:50:26;74.47;;;66.73;;
66587;SDS011;53446;50.076;8.198;2023-05-10T04:52:26;71.13;;;64.10;;
66587;SDS011;53446;50.076;8.198;2023-05-10T04:54:26;70.50;;;63.35;;
66587;SDS011;53446;50.076;8.198;2023-05-10T04:56:27;66.30;;;59.60;;
66587;SDS011;53446;50.076;8.198;2023-05-10T04:58:27;67.57;;;60.23;;
66587;SDS011;53446;50.076;8.198;2023-05-10T05:00:27;68.27;;;61.23;;
66587;SDS011;53446;50.076;8.198;2023-05-10T05:02:28;67.20;;;60.30;;
66587;SDS011;53446;50.076;8.198;2023-05-10T05:04:29;71.63;;;64.23;;
66587;SDS011;53446;50.076;8.198;2023-05-10T05:06:29;71.38;;;64.35;;
66587;SDS011;53446;50.076;8.198;2023-05-10T05:08:30;68.37;;;61.73;;
66587;SDS011;53446;50.076;8.198;2023-05-10T05:10:30;69.87;;;63.10;;
66587;SDS011;53446;50.076;8.198;2023-05-10T05:12:30;68.63;;;61.70;;
66587;SDS011;53446;50.076;8.198;2023-05-10T05:14:31;70.85;;;63.45;;
66587;SDS011;53446;50.076;8.198;2023-05-10T05:16:31;72.70;;;65.32;;
66587;SDS011;53446;50.076;8.198;2023-05-10T05:18:32;68.07;;;61.27;;
66587;SDS011;53446;50.076;8.198;2023-05-10T05:20:32;71.87;;;64.47;;
66587;SDS011;53446;50.076;8.198;2023-05-10T05:22:35;70.05;;;63.17;;
66587;SDS011;53446;50.076;8.198;2023-05-10T05:24:36;69.32;;;62.30;;
66587;SDS011;53446;50.076;8.198;2023-05-10T05:26:39;67.60;;;61.03;;
66587;SDS011;53446;50.076;8.198;2023-05-10T05:28:39;69.10;;;62.40;;
66587;SDS011;53446;50.076;8.198;2023-05-10T05:30:39;70.93;;;63.87;;
66587;SDS011;53446;50.076;8.198;2023-05-10T05:32:40;70.60;;;63.40;;
66587;SDS011;53446;50.076;8.198;2023-05-10T05:34:40;74.73;;;67.33;;
66587;SDS011;53446;50.076;8.198;2023-05-10T05:36:40;73.90;;;60.37;;
66587;SDS011;53446;50.076;8.198;2023-05-10T05:38:41;68.77;;;58.17;;
66587;SDS011;53446;50.076;8.198;2023-05-10T05:40:41;62.53;;;55.70;;
66587;SDS011;53446;50.076;8.198;2023-05-10T05:42:41;64.28;;;56.22;;
66587;SDS011;53446;50.076;8.198;2023-05-10T05:44:41;60.23;;;53.87;;
66587;SDS011;53446;50.076;8.198;2023-05-10T05:46:42;59.20;;;52.90;;
66587;SDS011;53446;50.076;8.198;2023-05-10T05:48:42;58.37;;;52.23;;
66587;SDS011;53446;50.076;8.198;2023-05-10T05:50:42;64.30;;;54.53;;
66587;SDS011;53446;50.076;8.198;2023-05-10T05:52:43;65.60;;;54.53;;
66587;SDS011;53446;50.076;8.198;2023-05-10T05:54:43;60.37;;;53.83;;
66587;SDS011;53446;50.076;8.198;2023-05-10T05:56:43;56.47;;;50.50;;
66587;SDS011;53446;50.076;8.198;2023-05-10T05:58:44;58.67;;;52.03;;
66587;SDS011;53446;50.076;8.198;2023-05-10T06:00:44;55.43;;;49.47;;
66587;SDS011;53446;50.076;8.198;2023-05-10T06:02:45;56.33;;;48.30;;
66587;SDS011;53446;50.076;8.198;2023-05-10T06:04:45;54.17;;;48.43;;
66587;SDS011;53446;50.076;8.198;2023-05-10T06:06:46;52.90;;;47.45;;
66587;SDS011;53446;50.076;8.198;2023-05-10T06:08:46;43.60;;;39.47;;
66587;SDS011;53446;50.076;8.198;2023-05-10T06:10:46;51.07;;;46.53;;
66587;SDS011;53446;50.076;8.198;2023-05-10T06:12:47;48.37;;;43.43;;
66587;SDS011;53446;50.076;8.198;2023-05-10T06:14:47;44.77;;;40.53;;
66587;SDS011;53446;50.076;8.198;2023-05-10T06:16:48;45.20;;;41.00;;
66587;SDS011;53446;50.076;8.198;2023-05-10T06:18:48;50.97;;;45.70;;
66587;SDS011;53446;50.076;8.198;2023-05-10T06:20:49;49.50;;;44.53;;
66587;SDS011;53446;50.076;8.198;2023-05-10T06:22:49;47.38;;;41.90;;
66587;SDS011;53446;50.076;8.198;2023-05-10T06:24:50;48.53;;;43.67;;
66587;SDS011;53446;50.076;8.198;2023-05-10T06:26:50;48.73;;;44.00;;
66587;SDS011;53446;50.076;8.198;2023-05-10T06:28:50;48.33;;;43.53;;
66587;SDS011;53446;50.076;8.198;2023-05-10T06:30:51;49.60;;;44.67;;
66587;SDS011;53446;50.076;8.198;2023-05-10T06:32:51;53.77;;;48.03;;
66587;SDS011;53446;50.076;8.198;2023-05-10T06:34:52;49.60;;;44.75;;
66587;SDS011;53446;50.076;8.198;2023-05-10T06:36:52;52.38;;;47.10;;
66587;SDS011;53446;50.076;8.198;2023-05-10T06:38:52;56.90;;;50.93;;
66587;SDS011;53446;50.076;8.198;2023-05-10T06:40:53;57.90;;;51.60;;
66587;SDS011;53446;50.076;8.198;2023-05-10T06:42:53;59.00;;;50.92;;
66587;SDS011;53446;50.076;8.198;2023-05-10T06:44:53;57.20;;;51.03;;
66587;SDS011;53446;50.076;8.198;2023-05-10T06:46:54;58.43;;;51.47;;
66587;SDS011;53446;50.076;8.198;2023-05-10T06:48:55;57.45;;;50.88;;
66587;SDS011;53446;50.076;8.198;2023-05-10T06:50:55;57.73;;;51.23;;
66587;SDS011;53446;50.076;8.198;2023-05-10T06:52:56;62.43;;;52.60;;
66587;SDS011;53446;50.076;8.198;2023-05-10T06:54:56;57.30;;;50.97;;
66587;SDS011;53446;50.076;8.198;2023-05-10T06:56:57;54.92;;;49.03;;
66587;SDS011;53446;50.076;8.198;2023-05-10T06:58:57;50.93;;;45.63;;
66587;SDS011;53446;50.076;8.198;2023-05-10T07:01:04;52.57;;;47.00;;
66587;SDS011;53446;50.076;8.198;2023-05-10T07:03:04;53.55;;;47.92;;
66587;SDS011;53446;50.076;8.198;2023-05-10T07:05:05;48.03;;;43.27;;
66587;SDS011;53446;50.076;8.198;2023-05-10T07:07:06;45.50;;;40.83;;
66587;SDS011;53446;50.076;8.198;2023-05-10T07:09:06;45.87;;;41.23;;
66587;SDS011;53446;50.076;8.198;2023-05-10T07:11:07;41.58;;;37.53;;
66587;SDS011;53446;50.076;8.198;2023-05-10T07:13:07;40.63;;;36.50;;
66587;SDS011;53446;50.076;8.198;2023-05-10T07:15:08;34.60;;;31.40;;
66587;SDS011;53446;50.076;8.198;2023-05-10T07:17:09;34.30;;;30.93;;
66587;SDS011;53446;50.076;8.198;2023-05-10T07:19:09;34.20;;;30.63;;
66587;SDS011;53446;50.076;8.198;2023-05-10T07:21:10;36.10;;;30.27;;
66587;SDS011;53446;50.076;8.198;2023-05-10T07:23:10;29.97;;;27.17;;
66587;SDS011;53446;50.076;8.198;2023-05-10T07:25:10;29.23;;;26.10;;
66587;SDS011;53446;50.076;8.198;2023-05-10T07:27:11;24.33;;;21.50;;
66587;SDS011;53446;50.076;8.198;2023-05-10T07:29:12;22.17;;;17.30;;
66587;SDS011;53446;50.076;8.198;2023-05-10T07:31:13;23.77;;;17.13;;
66587;SDS011;53446;50.076;8.198;2023-05-10T07:33:13;21.63;;;16.13;;
66587;SDS011;53446;50.076;8.198;2023-05-10T07:35:14;20.88;;;16.17;;
66587;SDS011;53446;50.076;8.198;2023-05-10T07:37:14;22.23;;;18.33;;
66587;SDS011;53446;50.076;8.198;2023-05-10T07:39:15;23.83;;;18.88;;
66587;SDS011;53446;50.076;8.198;2023-05-10T07:41:15;24.05;;;21.17;;
66587;SDS011;53446;50.076;8.198;2023-05-10T07:43:15;22.57;;;20.17;;
66587;SDS011;53446;50.076;8.198;2023-05-10T07:45:16;24.47;;;21.17;;
66587;SDS011;53446;50.076;8.198;2023-05-10T07:47:16;23.37;;;20.87;;
66587;SDS011;53446;50.076;8.198;2023-05-10T07:49:16;26.00;;;20.03;;
66587;SDS011;53446;50.076;8.198;2023-05-10T07:51:17;22.53;;;20.13;;
66587;SDS011;53446;50.076;8.198;2023-05-10T07:53:17;22.40;;;20.03;;
66587;SDS011;53446;50.076;8.198;2023-05-10T07:55:18;20.35;;;18.13;;
66587;SDS011;53446;50.076;8.198;2023-05-10T07:57:19;23.17;;;19.80;;
66587;SDS011;53446;50.076;8.198;2023-05-10T07:59:20;22.27;;;19.87;;
66587;SDS011;53446;50.076;8.198;2023-05-10T08:01:20;23.13;;;19.10;;
66587;SDS011;53446;50.076;8.198;2023-05-10T08:03:21;22.20;;;18.17;;
66587;SDS011;53446;50.076;8.198;2023-05-10T08:05:21;22.90;;;20.23;;
66587;SDS011;53446;50.076;8.198;2023-05-10T08:07:22;23.87;;;18.63;;
66587;SDS011;53446;50.076;8.198;2023-05-10T08:09:24;28.20;;;24.77;;
66587;SDS011;53446;50.076;8.198;2023-05-10T08:11:24;23.73;;;19.57;;
66587;SDS011;53446;50.076;8.198;2023-05-10T08:13:25;27.80;;;21.40;;
66587;SDS011;53446;50.076;8.198;2023-05-10T08:15:25;24.15;;;21.60;;
66587;SDS011;53446;50.076;8.198;2023-05-10T08:17:25;28.55;;;21.80;;
66587;SDS011;53446;50.076;8.198;2023-05-10T08:19:25;22.90;;;20.17;;
66587;SDS011;53446;50.076;8.198;2023-05-10T08:21:26;25.10;;;21.80;;
66587;SDS011;53446;50.076;8.198;2023-05-10T08:23:26;24.63;;;20.93;;
66587;SDS011;53446;50.076;8.198;2023-05-10T08:25:26;22.67;;;17.33;;
66587;SDS011;53446;50.076;8.198;2023-05-10T08:27:27;18.70;;;14.73;;
66587;SDS011;53446;50.076;8.198;2023-05-10T08:29:27;18.90;;;13.90;;
66587;SDS011;53446;50.076;8.198;2023-05-10T08:31:27;18.33;;;13.13;;
66587;SDS011;53446;50.076;8.198;2023-05-10T08:33:28;18.03;;;11.53;;
66587;SDS011;53446;50.076;8.198;2023-05-10T08:35:28;19.10;;;11.07;;
66587;SDS011;53446;50.076;8.198;2023-05-10T08:37:29;18.48;;;11.35;;
66587;SDS011;53446;50.076;8.198;2023-05-10T08:39:33;18.67;;;11.50;;
66587;SDS011;53446;50.076;8.198;2023-05-10T08:41:34;22.08;;;12.20;;
66587;SDS011;53446;50.076;8.198;2023-05-10T08:43:36;20.02;;;10.70;;
66587;SDS011;53446;50.076;8.198;2023-05-10T08:45:37;15.20;;;9.60;;
66587;SDS011;53446;50.076;8.198;2023-05-10T08:47:38;19.33;;;11.30;;
66587;SDS011;53446;50.076;8.198;2023-05-10T08:49:39;19.00;;;10.90;;
66587;SDS011;53446;50.076;8.198;2023-05-10T08:51:40;25.73;;;11.15;;
66587;SDS011;53446;50.076;8.198;2023-05-10T08:53:45;17.25;;;10.05;;
66587;SDS011;53446;50.076;8.198;2023-05-10T08:55:45;19.63;;;11.40;;
66587;SDS011;53446;50.076;8.198;2023-05-10T08:57:46;20.47;;;10.33;;
66587;SDS011;53446;50.076;8.198;2023-05-10T08:59:46;15.45;;;8.05;;
66587;SDS011;53446;50.076;8.198;2023-05-10T09:01:47;17.40;;;9.07;;
66587;SDS011;53446;50.076;8.198;2023-05-10T09:03:49;14.68;;;8.32;;
66587;SDS011;53446;50.076;8.198;2023-05-10T09:05:50;15.27;;;9.13;;
66587;SDS011;53446;50.076;8.198;2023-05-10T09:07:51;20.65;;;11.25;;
66587;SDS011;53446;50.076;8.198;2023-05-10T09:09:51;16.83;;;10.33;;
66587;SDS011;53446;50.076;8.198;2023-05-10T09:11:52;17.80;;;10.23;;
66587;SDS011;53446;50.076;8.198;2023-05-10T09:13:53;17.75;;;10.95;;
66587;SDS011;53446;50.076;8.198;2023-05-10T09:15:53;17.63;;;10.87;;
66587;SDS011;53446;50.076;8.198;2023-05-10T09:17:54;21.45;;;13.45;;
66587;SDS011;53446;50.076;8.198;2023-05-10T09:19:58;18.00;;;11.80;;
66587;SDS011;53446;50.076;8.198;2023-05-10T09:21:59;18.45;;;11.07;;
66587;SDS011;53446;50.076;8.198;2023-05-10T09:24:05;15.07;;;9.85;;
66587;SDS011;53446;50.076;8.198;2023-05-10T09:26:06;17.57;;;10.90;;
66587;SDS011;53446;50.076;8.198;2023-05-10T09:28:07;15.05;;;10.25;;
66587;SDS011;53446;50.076;8.198;2023-05-10T09:30:09;15.23;;;9.30;;
66587;SDS011;53446;50.076;8.198;2023-05-10T09:32:09;18.40;;;10.17;;
66587;SDS011;53446;50.076;8.198;2023-05-10T09:34:10;17.87;;;9.10;;
66587;SDS011;53446;50.076;8.198;2023-05-10T09:36:10;16.07;;;8.47;;
66587;SDS011;53446;50.076;8.198;2023-05-10T09:38:10;15.70;;;9.15;;
66587;SDS011;53446;50.076;8.198;2023-05-10T09:40:12;15.53;;;8.90;;
66587;SDS011;53446;50.076;8.198;2023-05-10T09:42:13;13.32;;;7.18;;
66587;SDS011;53446;50.076;8.198;2023-05-10T09:44:18;13.50;;;7.55;;
66587;SDS011;53446;50.076;8.198;2023-05-10T09:46:19;15.20;;;8.17;;
66587;SDS011;53446;50.076;8.198;2023-05-10T09:48:21;16.23;;;8.90;;
66587;SDS011;53446;50.076;8.198;2023-05-10T09:50:23;16.60;;;8.93;;
66587;SDS011;53446;50.076;8.198;2023-05-10T09:52:24;14.75;;;8.02;;
66587;SDS011;53446;50.076;8.198;2023-05-10T09:54:24;20.23;;;10.13;;
66587;SDS011;53446;50.076;8.198;2023-05-10T09:56:34;15.37;;;8.80;;
66587;SDS011;53446;50.076;8.198;2023-05-10T09:58:36;17.65;;;8.35;;
66587;SDS011;53446;50.076;8.198;2023-05-10T10:00:37;16.45;;;8.40;;
66587;SDS011;53446;50.076;8.198;2023-05-10T10:02:42;14.77;;;8.07;;
66587;SDS011;53446;50.076;8.198;2023-05-10T10:04:42;14.03;;;7.73;;
66587;SDS011;53446;50.076;8.198;2023-05-10T10:06:43;13.73;;;7.60;;
66587;SDS011;53446;50.076;8.198;2023-05-10T10:08:43;12.37;;;7.17;;
66587;SDS011;53446;50.076;8.198;2023-05-10T10:10:43;12.75;;;7.07;;
66587;SDS011;53446;50.076;8.198;2023-05-10T10:12:45;18.50;;;8.37;;
66587;SDS011;53446;50.076;8.198;2023-05-10T10:14:48;12.98;;;7.10;;
66587;SDS011;53446;50.076;8.198;2023-05-10T10:16:50;14.38;;;7.32;;
66587;SDS011;53446;50.076;8.198;2023-05-10T10:18:51;14.90;;;7.38;;
66587;SDS011;53446;50.076;8.198;2023-05-10T10:20:51;14.57;;;7.07;;
66587;SDS011;53446;50.076;8.198;2023-05-10T10:22:52;15.13;;;7.50;;
66587;SDS011;53446;50.076;8.198;2023-05-10T10:24:53;13.03;;;6.90;;
66587;SDS011;53446;50.076;8.198;2023-05-10T10:26:55;12.20;;;6.95;;
66587;SDS011;53446;50.076;8.198;2023-05-10T10:35:44;13.00;;;7.07;;
66587;SDS011;53446;50.076;8.198;2023-05-10T10:37:46;13.73;;;7.30;;
66587;SDS011;53446;50.076;8.198;2023-05-10T10:39:50;11.82;;;6.30;;
66587;SDS011;53446;50.076;8.198;2023-05-10T10:41:51;13.32;;;6.43;;
66587;SDS011;53446;50.076;8.198;2023-05-10T10:46:27;13.45;;;7.43;;
66587;SDS011;53446;50.076;8.198;2023-05-10T10:48:27;12.07;;;6.90;;
66587;SDS011;53446;50.076;8.198;2023-05-10T10:50:28;13.45;;;7.22;;
66587;SDS011;53446;50.076;8.198;2023-05-10T10:52:31;11.98;;;6.47;;
66587;SDS011;53446;50.076;8.198;2023-05-10T10:54:33;13.68;;;6.88;;
66587;SDS011;53446;50.076;8.198;2023-05-10T10:56:35;12.68;;;6.60;;
66587;SDS011;53446;50.076;8.198;2023-05-10T10:58:36;12.40;;;6.72;;
66587;SDS011;53446;50.076;8.198;2023-05-10T11:00:38;13.82;;;7.45;;
66587;SDS011;53446;50.076;8.198;2023-05-10T11:04:41;13.20;;;6.32;;
66587;SDS011;53446;50.076;8.198;2023-05-10T11:06:43;14.40;;;7.38;;
66587;SDS011;53446;50.076;8.198;2023-05-10T11:08:43;12.87;;;6.40;;
66587;SDS011;53446;50.076;8.198;2023-05-10T11:10:50;13.93;;;7.03;;
66587;SDS011;53446;50.076;8.198;2023-05-10T11:13:10;15.20;;;7.57;;
66587;SDS011;53446;50.076;8.198;2023-05-10T11:15:11;13.63;;;6.65;;
66587;SDS011;53446;50.076;8.198;2023-05-10T11:17:26;15.57;;;6.70;;
66587;SDS011;53446;50.076;8.198;2023-05-10T11:19:28;12.13;;;6.65;;
66587;SDS011;53446;50.076;8.198;2023-05-10T11:21:29;12.90;;;6.70;;
66587;SDS011;53446;50.076;8.198;2023-05-10T11:25:43;11.73;;;5.90;;
66587;SDS011;53446;50.076;8.198;2023-05-10T11:27:44;12.80;;;6.68;;
66587;SDS011;53446;50.076;8.198;2023-05-10T11:29:44;10.53;;;5.63;;
66587;SDS011;53446;50.076;8.198;2023-05-10T11:31:45;13.35;;;6.45;;
66587;SDS011;53446;50.076;8.198;2023-05-10T11:33:50;11.57;;;5.90;;
66587;SDS011;53446;50.076;8.198;2023-05-10T11:35:51;12.93;;;6.28;;
66587;SDS011;53446;50.076;8.198;2023-05-10T11:37:51;17.93;;;7.00;;
66587;SDS011;53446;50.076;8.198;2023-05-10T11:39:52;12.53;;;5.90;;
66587;SDS011;53446;50.076;8.198;2023-05-10T11:41:54;13.20;;;5.90;;
66587;SDS011;53446;50.076;8.198;2023-05-10T11:43:56;13.00;;;6.43;;
66587;SDS011;53446;50.076;8.198;2023-05-10T11:45:56;10.55;;;5.63;;
66587;SDS011;53446;50.076;8.198;2023-05-10T11:47:57;16.93;;;7.40;;
66587;SDS011;53446;50.076;8.198;2023-05-10T11:49:57;10.75;;;5.22;;
66587;SDS011;53446;50.076;8.198;2023-05-10T11:52:05;11.47;;;5.50;;
66587;SDS011;53446;50.076;8.198;2023-05-10T11:54:06;11.27;;;5.63;;
66587;SDS011;53446;50.076;8.198;2023-05-10T11:56:09;10.32;;;5.57;;
66587;SDS011;53446;50.076;8.198;2023-05-10T11:58:10;12.75;;;6.13;;
66587;SDS011;53446;50.076;8.198;2023-05-10T12:00:10;10.63;;;5.73;;
66587;SDS011;53446;50.076;8.198;2023-05-10T12:02:11;9.77;;;5.40;;
66587;SDS011;53446;50.076;8.198;2023-05-10T12:04:14;9.77;;;5.15;;
66587;SDS011;53446;50.076;8.198;2023-05-10T12:06:15;9.87;;;5.10;;
66587;SDS011;53446;50.076;8.198;2023-05-10T12:08:20;12.07;;;5.50;;
66587;SDS011;53446;50.076;8.198;2023-05-10T12:10:25;11.68;;;5.10;;
66587;SDS011;53446;50.076;8.198;2023-05-10T12:12:26;11.03;;;5.93;;
66587;SDS011;53446;50.076;8.198;2023-05-10T12:14:26;12.93;;;5.83;;
66587;SDS011;53446;50.076;8.198;2023-05-10T12:16:29;12.68;;;6.20;;
66587;SDS011;53446;50.076;8.198;2023-05-10T12:18:29;9.87;;;5.27;;
66587;SDS011;53446;50.076;8.198;2023-05-10T12:20:29;11.60;;;6.00;;
66587;SDS011;53446;50.076;8.198;2023-05-10T12:22:30;12.43;;;5.60;;